Time;durP1;ratioP1;P1;durP2;ratioP2;P2;SDS_P1;SDS_P2;PMS_P1;PMS_P2;Temp;Humidity;BMP_temperature;BMP_pressure;BME280_temperature;BME280_humidity;BME280_pressure;Samples;Min_cycle;Max_cycle;Signal;HPM_P1;HPM_P2
2023/02/13 00:00:24;;;;;;;43.83;26.33;;;;;;;0.01;54.52;95527.00;4978264;28;20114;-79
2023/02/13 00:02:50;;;;;;;42.03;24.15;;;;;;;0.10;53.80;95523.19;4978039;28;20030;-79
2023/02/13 00:05:15;;;;;;;45.53;25.70;;;;;;;-0.02;54.03;95529.22;4979975;28;20638;-78
2023/02/13 00:07:41;;;;;;;42.20;24.45;;;;;;;-0.19;54.13;95508.75;4981526;28;20438;-78
2023/02/13 00:10:08;;;;;;;44.70;25.38;;;;;;;-0.00;53.90;95532.47;4978875;28;20132;-78
2023/02/13 00:12:33;;;;;;;38.45;22.95;;;;;;;-0.21;53.77;95513.38;4980495;28;20509;-77
2023/02/13 00:14:59;;;;;;;35.72;22.67;;;;;;;-0.15;53.69;95536.13;4977649;28;20031;-76
2023/02/13 00:17:24;;;;;;;36.20;23.65;;;;;;;-0.08;53.51;95536.91;4974771;28;20038;-75
2023/02/13 00:19:51;;;;;;;48.88;27.85;;;;;;;-0.14;54.24;95535.09;5008152;28;20038;-77
2023/02/13 00:22:16;;;;;;;48.90;28.63;;;;;;;-0.30;54.30;95530.31;4978374;28;20066;-78
2023/02/13 00:24:42;;;;;;;47.08;28.60;;;;;;;-0.30;54.28;95535.53;4978421;28;20542;-77
2023/02/13 00:27:07;;;;;;;43.97;28.25;;;;;;;-0.23;54.26;95538.94;4976599;28;20069;-79
2023/02/13 00:29:33;;;;;;;46.33;28.27;;;;;;;-0.19;54.05;95528.88;4975557;28;20463;-77
2023/02/13 00:32:00;;;;;;;49.35;28.75;;;;;;;-0.13;54.73;95546.34;4977145;28;20539;-77
2023/02/13 00:34:25;;;;;;;43.28;26.10;;;;;;;-0.12;54.95;95543.53;4978771;28;20117;-78
2023/02/13 00:36:51;;;;;;;46.10;25.13;;;;;;;-0.05;54.38;95546.16;4978392;28;20031;-77
2023/02/13 00:39:16;;;;;;;41.00;25.88;;;;;;;-0.26;54.24;95517.63;4974488;28;20173;-77
2023/02/13 00:41:42;;;;;;;43.97;25.23;;;;;;;-0.10;54.11;95543.34;4975035;28;20651;-77
2023/02/13 00:44:08;;;;;;;41.20;25.75;;;;;;;-0.12;54.18;95540.94;4975544;28;20027;-79
2023/02/13 00:46:34;;;;;;;47.30;27.77;;;;;;;0.02;54.14;95548.75;4978075;28;20034;-77
2023/02/13 00:48:59;;;;;;;42.08;25.27;;;;;;;0.04;54.15;95546.72;4973415;28;20022;-76
2023/02/13 00:51:24;;;;;;;46.17;27.27;;;;;;;-0.25;54.16;95524.47;4976731;28;20049;-79
2023/02/13 00:53:50;;;;;;;45.67;26.25;;;;;;;-0.18;54.56;95533.09;4976693;28;20034;-77
2023/02/13 00:56:15;;;;;;;67.47;38.35;;;;;;;-0.08;54.36;95557.81;4978013;28;20053;-79
2023/02/13 00:58:41;;;;;;;61.70;33.95;;;;;;;-0.15;54.21;95551.81;4977541;28;20053;-79
2023/02/13 01:01:06;;;;;;;46.78;27.98;;;;;;;-0.18;54.35;95562.66;4977210;28;20030;-76
2023/02/13 01:03:31;;;;;;;45.35;25.50;;;;;;;-0.21;54.25;95547.38;4978251;28;20022;-77
2023/02/13 01:05:57;;;;;;;41.05;25.38;;;;;;;-0.22;54.42;95558.03;4977210;28;20089;-78
2023/02/13 01:08:23;;;;;;;46.42;26.55;;;;;;;-0.31;54.64;95557.47;4976482;28;20121;-77
2023/02/13 01:10:49;;;;;;;39.40;26.33;;;;;;;-0.27;54.30;95552.63;4978050;28;20041;-78
2023/02/13 01:13:17;;;;;;;43.55;25.65;;;;;;;-0.32;54.21;95557.66;4979265;28;20490;-77
2023/02/13 01:15:43;;;;;;;41.65;23.60;;;;;;;-0.47;53.99;95531.72;4968978;28;20202;-77
2023/02/13 01:18:12;;;;;;;41.40;24.17;;;;;;;-0.34;53.93;95536.97;4979912;28;20504;-78
2023/02/13 01:20:37;;;;;;;41.67;24.80;;;;;;;-0.25;54.22;95546.19;4977975;28;20041;-80
2023/02/13 01:23:03;;;;;;;40.15;24.98;;;;;;;-0.32;53.92;95526.28;4978453;28;20030;-77
2023/02/13 01:25:29;;;;;;;39.17;25.70;;;;;;;-0.16;53.66;95558.03;4976774;28;20126;-77
2023/02/13 01:27:54;;;;;;;48.30;27.13;;;;;;;-0.26;54.01;95552.44;4979565;28;20038;-81
2023/02/13 01:30:20;;;;;;;44.85;27.13;;;;;;;-0.42;54.28;95538.94;4977842;28;20031;-77
2023/02/13 01:32:46;;;;;;;48.90;26.85;;;;;;;-0.41;54.64;95549.22;4979525;28;20052;-78
2023/02/13 01:35:13;;;;;;;45.67;29.38;;;;;;;-0.28;54.75;95558.84;4961867;28;20154;-79
2023/02/13 01:37:39;;;;;;;51.55;30.27;;;;;;;-0.25;55.06;95564.50;4977342;28;20042;-80
2023/02/13 01:40:06;;;;;;;54.33;30.63;;;;;;;-0.26;54.83;95564.69;4977286;28;20354;-77
2023/02/13 01:42:34;;;;;;;52.63;30.42;;;;;;;-0.36;54.93;95554.66;4969792;28;20578;-78
2023/02/13 01:45:01;;;;;;;49.80;29.48;;;;;;;-0.26;55.03;95569.91;4978449;28;20731;-78
2023/02/13 01:47:44;;;;;;;49.47;29.27;;;;;;;-0.11;54.68;95568.69;4980068;28;20038;-78
2023/02/13 01:50:12;;;;;;;67.63;39.40;;;;;;;-0.14;55.93;95570.94;4967320;28;20117;-77
2023/02/13 01:52:48;;;;;;;71.28;37.42;;;;;;;-0.21;55.84;95575.34;4977790;28;20057;-78
2023/02/13 01:55:14;;;;;;;60.60;35.10;;;;;;;-0.20;55.93;95577.78;4978697;28;20057;-77
2023/02/13 01:57:43;;;;;;;66.93;37.35;;;;;;;-0.19;56.35;95566.28;4980404;28;20029;-78
2023/02/13 02:00:11;;;;;;;63.17;34.35;;;;;;;-0.14;56.63;95579.56;4978850;28;20049;-78
2023/02/13 02:02:40;;;;;;;66.55;37.47;;;;;;;-0.39;56.47;95513.22;4975447;28;20041;-78
2023/02/13 02:05:07;;;;;;;61.58;38.65;;;;;;;-0.03;56.86;95574.72;4986649;28;20045;-78
2023/02/13 02:07:34;;;;;;;67.22;38.55;;;;;;;0.08;57.16;95581.94;4992752;28;20038;-80
2023/02/13 02:10:07;;;;;;;67.35;38.08;;;;;;;-0.03;57.94;95566.88;4978387;28;20104;-79
2023/02/13 02:13:13;;;;;;;73.55;39.55;;;;;;;-0.03;58.04;95572.09;4978228;28;20042;-78
2023/02/13 02:15:40;;;;;;;75.03;40.42;;;;;;;0.18;58.22;95571.84;4976612;28;20061;-80
2023/02/13 02:18:16;;;;;;;74.72;39.50;;;;;;;0.15;58.22;95552.16;4976924;28;20414;-78
2023/02/13 02:21:19;;;;;;;80.28;41.22;;;;;;;0.20;58.80;95572.47;4969378;28;20217;-78
2023/02/13 02:24:09;;;;;;;75.00;40.40;;;;;;;0.23;59.16;95567.63;4972086;28;21085;-75
2023/02/13 02:27:02;;;;;;;76.55;40.13;;;;;;;0.32;59.25;95569.00;4982422;28;20042;-79
2023/02/13 02:30:05;;;;;;;78.03;44.25;;;;;;;0.27;59.35;95576.66;4982681;28;20074;-81
2023/02/13 02:32:37;;;;;;;82.15;43.00;;;;;;;-0.07;59.96;95528.03;4982573;28;20050;-78
2023/02/13 02:35:18;;;;;;;78.40;42.15;;;;;;;0.33;59.86;95561.94;4979397;28;20054;-78
2023/02/13 02:38:01;;;;;;;73.43;40.85;;;;;;;0.22;59.37;95552.09;4980693;28;20039;-80
2023/02/13 02:40:39;;;;;;;80.07;43.97;;;;;;;-0.04;59.85;95539.91;4975271;28;20532;-79
2023/02/13 02:43:10;;;;;;;82.75;44.17;;;;;;;0.36;59.79;95577.22;4984657;28;20475;-78
2023/02/13 02:46:04;;;;;;;78.78;45.25;;;;;;;0.28;59.84;95572.22;4977300;28;20034;-81
2023/02/13 02:51:30;;;;;;;103.37;55.80;;;;;;;0.39;59.81;95587.31;4981281;28;22668;-78
2023/02/13 02:57:07;;;;;;;92.97;51.15;;;;;;;0.30;59.62;95575.47;4979431;28;20096;-80
2023/02/13 03:08:03;;;;;;;73.30;40.83;;;;;;;0.31;60.05;95588.31;4982808;28;20121;-78
2023/02/13 03:13:40;;;;;;;71.97;38.53;;;;;;;0.25;59.61;95588.34;4981027;28;20118;-78
2023/02/13 03:23:08;;;;;;;64.55;37.10;;;;;;;0.44;59.20;95599.78;4883851;29;20180;-79
2023/02/13 03:25:45;;;;;;;72.18;39.05;;;;;;;0.36;59.00;95585.09;4921824;29;20071;-79
2023/02/13 03:31:22;;;;;;;71.28;38.47;;;;;;;0.47;59.21;95597.53;4981751;28;20085;-80
2023/02/13 03:33:56;;;;;;;65.68;37.17;;;;;;;0.42;59.25;95599.97;4980743;28;20033;-80
2023/02/13 03:39:23;;;;;;;70.20;37.15;;;;;;;0.25;59.15;95565.56;4981192;28;20165;-77
2023/02/13 03:41:57;;;;;;;67.47;37.05;;;;;;;0.57;59.02;95603.16;4969255;28;20467;-78
2023/02/13 03:44:26;;;;;;;65.18;35.30;;;;;;;0.44;58.79;95586.69;4981917;28;20429;-79
2023/02/13 03:46:56;;;;;;;64.88;37.45;;;;;;;0.41;59.22;95600.16;4977455;28;20045;-78
2023/02/13 03:52:20;;;;;;;73.22;41.63;;;;;;;0.52;59.14;95600.34;4979807;28;20494;-75
2023/02/13 04:00:28;;;;;;;66.00;37.10;;;;;;;0.57;58.79;95592.66;4978450;28;20553;-79
2023/02/13 04:02:59;;;;;;;66.60;39.85;;;;;;;0.65;58.54;95591.63;4983489;28;20037;-79
2023/02/13 04:05:29;;;;;;;69.53;39.08;;;;;;;0.65;58.00;95584.56;4978289;28;20124;-77
2023/02/13 04:07:55;;;;;;;68.80;37.53;;;;;;;0.51;58.06;95572.53;4980399;28;20179;-78
2023/02/13 04:10:24;;;;;;;66.22;37.13;;;;;;;0.59;58.06;95585.44;4980199;28;20022;-79
2023/02/13 04:12:58;;;;;;;73.00;37.28;;;;;;;0.65;57.76;95589.81;4981728;28;20026;-77
2023/02/13 04:15:35;;;;;;;68.93;40.28;;;;;;;0.66;57.67;95596.66;4978580;28;20097;-78
2023/02/13 04:18:14;;;;;;;69.47;38.20;;;;;;;0.62;57.80;95590.25;4979314;28;20050;-79
2023/02/13 04:20:40;;;;;;;68.70;38.90;;;;;;;0.40;57.21;95538.38;4980640;28;20832;-78
2023/02/13 04:23:07;;;;;;;67.55;35.65;;;;;;;0.69;57.35;95595.47;4980929;28;20525;-79
2023/02/13 04:25:34;;;;;;;65.32;36.92;;;;;;;0.67;57.34;95600.88;4976961;28;20410;-81
2023/02/13 04:28:00;;;;;;;64.78;35.38;;;;;;;0.46;57.43;95585.44;4980201;28;20060;-80
2023/02/13 04:30:25;;;;;;;60.58;36.58;;;;;;;0.62;57.50;95605.94;4978343;28;20954;-78
2023/02/13 04:32:51;;;;;;;57.88;33.75;;;;;;;0.69;57.01;95601.47;4979568;28;20077;-79
2023/02/13 04:35:17;;;;;;;66.95;35.20;;;;;;;0.84;56.55;95600.44;4979605;28;20103;-80
2023/02/13 04:37:42;;;;;;;69.95;37.35;;;;;;;0.53;56.77;95569.72;4980589;28;20046;-80
2023/02/13 04:40:08;;;;;;;65.63;35.03;;;;;;;0.57;57.39;95590.06;4978531;28;20101;-78
2023/02/13 04:42:34;;;;;;;59.38;34.35;;;;;;;0.40;57.91;95588.88;4979697;28;20506;-78
2023/02/13 04:44:59;;;;;;;65.10;33.55;;;;;;;0.30;57.89;95565.00;4979840;28;20557;-79
2023/02/13 04:47:24;;;;;;;65.80;34.70;;;;;;;0.50;57.59;95586.63;4979136;28;20510;-79
2023/02/13 04:49:50;;;;;;;68.05;36.13;;;;;;;0.13;58.75;95589.97;4977972;28;20046;-79
2023/02/13 04:52:15;;;;;;;64.50;35.63;;;;;;;0.05;58.90;95575.31;4978082;28;20469;-77
2023/02/13 04:54:41;;;;;;;57.78;35.00;;;;;;;-0.07;59.46;95584.78;4977879;28;20037;-79
2023/02/13 04:57:06;;;;;;;65.80;34.53;;;;;;;0.07;59.29;95590.78;4975789;28;20038;-77
2023/02/13 04:59:31;;;;;;;63.15;35.70;;;;;;;0.06;59.18;95583.94;4978875;28;20456;-79
2023/02/13 05:01:58;;;;;;;65.60;37.15;;;;;;;0.12;59.10;95604.06;4977213;28;20088;-78
2023/02/13 05:04:24;;;;;;;64.40;35.25;;;;;;;0.16;59.34;95613.09;4978940;28;20041;-79
2023/02/13 05:06:50;;;;;;;69.78;37.80;;;;;;;0.13;59.36;95601.25;4978438;28;20713;-79
2023/02/13 05:09:15;;;;;;;68.75;36.80;;;;;;;0.36;59.39;95619.09;4977691;28;20050;-79
2023/02/13 05:11:40;;;;;;;68.85;37.15;;;;;;;0.38;58.94;95627.56;4978164;28;20501;-78
2023/02/13 05:14:06;;;;;;;69.45;36.50;;;;;;;0.13;58.83;95580.31;4984999;28;20035;-78
2023/02/13 05:16:31;;;;;;;71.25;36.13;;;;;;;0.24;58.80;95576.28;4976681;28;20404;-78
2023/02/13 05:18:57;;;;;;;70.07;39.00;;;;;;;0.30;58.50;95588.53;4979382;28;20035;-79
2023/02/13 05:24:07;;;;;;;62.08;36.08;;;;;;;0.29;59.08;95620.97;4980636;28;20044;-78
2023/02/13 05:26:32;;;;;;;61.42;34.67;;;;;;;0.07;59.02;95590.78;4975708;28;20034;-78
2023/02/13 05:31:41;;;;;;;58.20;32.33;;;;;;;0.21;59.29;95618.53;4974405;28;20058;-78
2023/02/13 05:34:07;;;;;;;61.15;34.00;;;;;;;0.03;59.45;95610.53;4977042;28;20030;-77
2023/02/13 05:36:32;;;;;;;59.28;34.40;;;;;;;0.08;59.32;95613.34;4980105;28;21404;-80
2023/02/13 05:38:58;;;;;;;70.10;37.58;;;;;;;-0.02;59.63;95613.75;4974426;28;20030;-79
2023/02/13 05:41:23;;;;;;;61.50;34.42;;;;;;;-0.09;60.11;95608.50;4976828;28;20093;-78
2023/02/13 05:43:48;;;;;;;62.22;33.85;;;;;;;0.16;59.64;95627.00;4983913;28;20097;-78
2023/02/13 05:46:14;;;;;;;67.55;37.33;;;;;;;0.28;59.27;95630.63;4978864;28;20498;-79
2023/02/13 05:48:39;;;;;;;63.53;36.47;;;;;;;0.29;59.40;95637.47;4976556;28;20034;-78
2023/02/13 05:51:05;;;;;;;61.25;33.38;;;;;;;0.36;59.20;95637.44;4975953;28;20113;-80
2023/02/13 05:53:34;;;;;;;66.38;37.78;;;;;;;0.34;59.30;95642.09;4976478;28;20123;-79
2023/02/13 05:55:59;;;;;;;68.15;36.50;;;;;;;0.19;59.56;95641.50;4976687;28;20186;-79
2023/02/13 05:58:25;;;;;;;65.55;35.67;;;;;;;0.21;59.87;95631.63;4977801;28;20038;-80
2023/02/13 06:00:58;;;;;;;64.40;37.38;;;;;;;0.27;59.97;95628.19;4978584;28;20019;-79
2023/02/13 06:03:24;;;;;;;67.60;34.95;;;;;;;0.31;59.63;95651.13;4975995;28;20037;-78
2023/02/13 06:05:50;;;;;;;66.55;35.85;;;;;;;0.23;60.14;95653.97;4974869;28;20151;-79
2023/02/13 06:08:15;;;;;;;66.85;37.28;;;;;;;-0.08;60.88;95628.44;4975106;28;20046;-79
2023/02/13 06:10:41;;;;;;;68.97;38.17;;;;;;;0.21;60.93;95655.19;4978459;28;20045;-80
2023/02/13 06:13:06;;;;;;;71.05;36.80;;;;;;;0.26;60.25;95650.13;4976964;28;20034;-79
2023/02/13 06:15:31;;;;;;;67.78;37.60;;;;;;;0.36;59.85;95646.09;4979866;28;20018;-78
2023/02/13 06:17:57;;;;;;;69.43;37.10;;;;;;;0.50;59.73;95657.34;4976680;28;20049;-78
2023/02/13 06:20:22;;;;;;;72.28;40.38;;;;;;;0.48;59.26;95641.03;4978883;28;20401;-79
2023/02/13 06:22:51;;;;;;;67.15;38.45;;;;;;;0.59;59.11;95652.69;4976024;28;20041;-79
2023/02/13 06:25:17;;;;;;;78.65;41.00;;;;;;;0.46;58.73;95629.97;4977763;28;20031;-79
2023/02/13 06:27:43;;;;;;;73.65;40.35;;;;;;;0.59;58.84;95661.38;4977029;28;20064;-79
2023/02/13 06:30:09;;;;;;;67.28;36.58;;;;;;;0.52;58.82;95637.00;4974740;28;21079;-78
2023/02/13 06:32:34;;;;;;;63.97;34.22;;;;;;;0.08;59.15;95613.34;4977250;28;20070;-78
2023/02/13 06:35:00;;;;;;;65.10;35.30;;;;;;;0.08;60.08;95644.72;4975012;28;20042;-79
2023/02/13 06:37:25;;;;;;;64.82;37.10;;;;;;;-0.13;60.72;95638.69;4976877;28;20528;-79
2023/02/13 06:39:51;;;;;;;70.93;35.92;;;;;;;0.05;60.86;95658.22;4976948;28;20078;-76
2023/02/13 06:42:17;;;;;;;71.28;38.22;;;;;;;0.13;61.15;95666.66;4978700;28;20313;-80
2023/02/13 06:44:42;;;;;;;69.45;38.20;;;;;;;0.07;60.87;95651.78;4975469;28;20109;-78
2023/02/13 06:47:08;;;;;;;68.07;35.15;;;;;;;0.05;60.69;95650.38;4975868;28;20034;-80
2023/02/13 06:49:33;;;;;;;67.85;34.70;;;;;;;0.15;60.60;95669.91;4976645;28;20138;-78
2023/02/13 06:51:58;;;;;;;63.83;33.35;;;;;;;-0.01;60.77;95651.19;4976732;28;20037;-79
2023/02/13 06:54:24;;;;;;;67.50;36.40;;;;;;;-0.13;61.57;95646.56;4973556;28;20925;-78
2023/02/13 06:56:49;;;;;;;68.30;36.35;;;;;;;-0.21;62.07;95646.75;4971420;28;20041;-79
2023/02/13 06:59:14;;;;;;;69.13;37.78;;;;;;;0.10;61.71;95671.50;4970780;28;20069;-78
2023/02/13 07:01:40;;;;;;;65.15;34.80;;;;;;;0.02;61.26;95674.31;4974642;28;20035;-78
2023/02/13 07:04:05;;;;;;;73.18;35.92;;;;;;;-0.25;61.95;95656.03;4972544;28;20108;-78
2023/02/13 07:06:31;;;;;;;65.45;35.53;;;;;;;0.01;61.38;95664.88;4976664;28;20076;-78
2023/02/13 07:08:56;;;;;;;63.45;34.55;;;;;;;-0.34;61.69;95628.47;4974692;28;20048;-76
2023/02/13 07:11:24;;;;;;;68.85;36.95;;;;;;;-0.09;61.23;95636.47;4972579;28;20530;-77
2023/02/13 07:13:49;;;;;;;67.28;36.47;;;;;;;-0.11;61.82;95651.59;4974244;28;20082;-79
2023/02/13 07:16:15;;;;;;;67.82;37.22;;;;;;;0.19;61.34;95662.44;4977323;28;20062;-79
2023/02/13 07:18:40;;;;;;;76.25;42.78;;;;;;;0.08;60.96;95655.19;4978106;28;20040;-78
2023/02/13 07:21:07;;;;;;;85.47;45.72;;;;;;;-0.03;60.85;95621.78;4976146;28;20038;-78
2023/02/13 07:23:33;;;;;;;64.63;36.55;;;;;;;-0.00;60.38;95631.88;4975690;28;20220;-78
2023/02/13 07:25:59;;;;;;;65.80;36.17;;;;;;;0.05;61.19;95676.53;4974301;28;20556;-76
2023/02/13 07:28:25;;;;;;;63.55;34.88;;;;;;;-0.20;61.10;95632.69;4976398;28;20030;-78
2023/02/13 07:30:51;;;;;;;66.88;36.95;;;;;;;0.12;61.10;95679.94;5003358;28;20417;-78
2023/02/13 07:33:17;;;;;;;62.72;35.65;;;;;;;0.02;61.40;95676.94;4974638;28;20034;-76
2023/02/13 07:35:50;;;;;;;67.35;37.58;;;;;;;-0.07;61.66;95664.06;4974760;28;20529;-78
2023/02/13 07:38:17;;;;;;;74.22;38.67;;;;;;;0.19;61.19;95678.13;4973247;28;20744;-78
2023/02/13 07:40:42;;;;;;;63.95;33.65;;;;;;;0.27;60.66;95662.22;4972243;28;20050;-78
2023/02/13 07:43:07;;;;;;;68.72;35.30;;;;;;;0.39;60.35;95678.94;4976269;28;20493;-77
2023/02/13 07:45:33;;;;;;;69.55;37.28;;;;;;;0.25;60.28;95651.94;4974771;28;20128;-78
2023/02/13 07:47:59;;;;;;;67.57;36.67;;;;;;;0.43;60.37;95674.88;4978013;28;20081;-78
2023/02/13 07:50:25;;;;;;;73.43;36.67;;;;;;;0.56;59.50;95659.13;4975131;28;20035;-77
2023/02/13 07:52:58;;;;;;;66.90;37.92;;;;;;;0.67;58.89;95671.59;4975912;28;20412;-78
2023/02/13 07:55:25;;;;;;;65.18;36.58;;;;;;;0.63;58.69;95685.31;4974232;28;20038;-77
2023/02/13 07:57:51;;;;;;;64.05;34.65;;;;;;;0.72;58.51;95673.59;4975257;28;20738;-78
2023/02/13 08:00:17;;;;;;;64.85;34.05;;;;;;;0.52;58.82;95663.19;4978652;28;20035;-78
2023/02/13 08:02:45;;;;;;;63.50;34.42;;;;;;;0.35;59.69;95672.47;4977711;28;20058;-78
2023/02/13 08:05:11;;;;;;;65.43;34.33;;;;;;;0.25;59.93;95653.78;4976466;28;20034;-79
2023/02/13 08:07:37;;;;;;;64.78;35.33;;;;;;;0.35;59.62;95675.09;4975272;28;20547;-77
2023/02/13 08:12:47;;;;;;;66.90;36.20;;;;;;;0.47;59.57;95673.47;4976682;28;20656;-78
2023/02/13 08:15:14;;;;;;;72.22;36.75;;;;;;;0.52;59.97;95675.47;4974473;28;20602;-78
2023/02/13 08:17:40;;;;;;;69.97;36.38;;;;;;;0.42;59.15;95654.94;4977566;28;20140;-79
2023/02/13 08:20:07;;;;;;;68.40;38.45;;;;;;;0.54;59.48;95681.31;4977448;28;20434;-77
2023/02/13 08:22:33;;;;;;;70.30;42.08;;;;;;;0.45;59.37;95658.97;4975916;28;20041;-76
2023/02/13 08:24:58;;;;;;;63.10;34.20;;;;;;;0.57;59.04;95673.03;4979002;28;20043;-76
2023/02/13 08:27:24;;;;;;;76.50;43.60;;;;;;;0.27;59.57;95641.28;4979147;28;20039;-76
2023/02/13 08:29:50;;;;;;;65.65;37.05;;;;;;;0.68;59.41;95678.47;4976887;28;20038;-77
2023/02/13 08:32:16;;;;;;;58.33;34.10;;;;;;;0.91;57.68;95679.78;4978071;28;20045;-78
2023/02/13 08:34:41;;;;;;;58.50;34.67;;;;;;;0.83;57.34;95672.16;4979269;28;20419;-78
2023/02/13 08:37:06;;;;;;;63.28;36.08;;;;;;;0.58;58.30;95664.19;4979501;28;20184;-78
2023/02/13 08:39:32;;;;;;;67.93;39.03;;;;;;;0.41;59.18;95661.19;4976271;28;20056;-78
2023/02/13 08:41:57;;;;;;;72.90;38.97;;;;;;;0.75;58.44;95668.75;4977717;28;20031;-79
2023/02/13 08:44:23;;;;;;;64.32;35.40;;;;;;;0.79;57.87;95669.94;4978768;28;20034;-78
2023/02/13 08:46:48;;;;;;;69.13;39.17;;;;;;;0.66;57.96;95667.38;4976912;28;20049;-79
2023/02/13 08:49:14;;;;;;;62.78;33.70;;;;;;;0.63;58.09;95665.16;4974818;28;20088;-78
2023/02/13 08:51:39;;;;;;;64.40;34.83;;;;;;;0.80;58.11;95671.56;4975600;28;20030;-78
2023/02/13 08:54:04;;;;;;;68.82;37.97;;;;;;;1.00;57.68;95671.47;4973683;28;20506;-79
2023/02/13 08:56:30;;;;;;;64.22;37.03;;;;;;;1.00;56.87;95668.84;4976016;28;20544;-78
2023/02/13 08:58:55;;;;;;;63.30;34.83;;;;;;;0.88;57.19;95674.97;4971697;28;20132;-79
2023/02/13 09:01:22;;;;;;;60.38;35.13;;;;;;;0.93;57.49;95667.28;4976940;28;20101;-77
2023/02/13 09:03:48;;;;;;;70.72;38.63;;;;;;;1.02;57.27;95663.41;4976089;28;20367;-77
2023/02/13 09:06:14;;;;;;;68.07;36.38;;;;;;;1.20;56.56;95666.16;4975894;28;20041;-77
2023/02/13 09:08:39;;;;;;;73.28;39.70;;;;;;;1.30;56.76;95665.69;4978420;28;20494;-77
2023/02/13 09:11:07;;;;;;;75.45;42.55;;;;;;;1.38;56.88;95668.88;4980384;28;20039;-79
2023/02/13 09:13:35;;;;;;;72.65;39.10;;;;;;;1.30;56.73;95656.00;4976307;28;20038;-78
2023/02/13 09:16:04;;;;;;;67.75;37.90;;;;;;;1.48;56.37;95671.84;4978950;28;20492;-78
2023/02/13 09:18:29;;;;;;;67.78;37.33;;;;;;;1.57;56.37;95675.03;4976606;28;20454;-79
2023/02/13 09:21:04;;;;;;;58.97;34.03;;;;;;;1.67;55.62;95672.72;4980681;28;20041;-79
2023/02/13 09:23:31;;;;;;;65.10;36.83;;;;;;;1.45;55.04;95640.81;4977248;28;20074;-79
2023/02/13 09:26:01;;;;;;;61.60;35.28;;;;;;;0.99;56.42;95643.66;4979185;28;20406;-78
2023/02/13 09:28:27;;;;;;;64.28;35.97;;;;;;;0.67;57.92;95649.84;4977619;28;20046;-79
2023/02/13 09:30:53;;;;;;;68.63;35.78;;;;;;;1.07;57.34;95663.59;4977786;28;20525;-78
2023/02/13 09:33:18;;;;;;;67.68;37.78;;;;;;;1.08;56.69;95625.91;4976613;28;20042;-79
2023/02/13 09:35:44;;;;;;;75.72;38.75;;;;;;;1.03;57.69;95654.56;4974024;28;20406;-79
2023/02/13 09:38:09;;;;;;;62.15;36.00;;;;;;;1.22;56.65;95638.72;4974353;28;20125;-79
2023/02/13 09:40:37;;;;;;;67.78;38.30;;;;;;;1.35;56.29;95627.34;4973750;28;20313;-80
2023/02/13 09:43:13;;;;;;;69.38;39.53;;;;;;;1.60;55.96;95641.31;4976247;28;20401;-75
2023/02/13 09:45:40;;;;;;;65.57;38.55;;;;;;;1.32;55.66;95643.50;4976226;28;20027;-80
2023/02/13 09:48:09;;;;;;;69.03;37.88;;;;;;;0.31;58.87;95608.44;4975446;28;20811;-79
2023/02/13 09:50:35;;;;;;;74.80;42.70;;;;;;;1.07;57.93;95648.69;4974835;28;20120;-79
2023/02/13 09:53:03;;;;;;;68.38;36.80;;;;;;;1.25;56.67;95632.25;4974415;28;20042;-80
2023/02/13 09:55:36;;;;;;;70.68;38.10;;;;;;;1.49;56.31;95641.97;4974809;28;20038;-79
2023/02/13 09:58:19;;;;;;;66.50;34.92;;;;;;;1.28;56.21;95618.72;4974695;28;20034;-80
2023/02/13 10:00:50;;;;;;;66.13;36.50;;;;;;;1.33;56.18;95618.06;4974324;28;20042;-80
2023/02/13 10:03:34;;;;;;;70.32;40.92;;;;;;;1.62;56.56;95627.97;4974107;28;20149;-79
2023/02/13 10:06:02;;;;;;;78.78;41.97;;;;;;;1.90;55.85;95630.22;4975732;28;20479;-78
2023/02/13 10:08:48;;;;;;;78.43;40.10;;;;;;;1.83;55.75;95629.44;4975883;28;20038;-79
2023/02/13 10:11:35;;;;;;;72.93;39.88;;;;;;;1.01;58.77;95607.59;4965553;28;20061;-79
2023/02/13 10:14:05;;;;;;;74.15;40.85;;;;;;;1.38;57.39;95594.66;4972196;28;20049;-79
2023/02/13 10:17:02;;;;;;;68.90;39.13;;;;;;;1.26;57.46;95612.88;4971798;28;20047;-78
2023/02/13 10:19:35;;;;;;;71.43;39.22;;;;;;;1.43;57.03;95590.38;4959787;28;20499;-79
2023/02/13 10:22:10;;;;;;;75.90;39.85;;;;;;;1.20;58.23;95608.47;4965432;28;20029;-79
2023/02/13 10:25:00;;;;;;;71.50;37.70;;;;;;;0.43;60.69;95611.25;4974464;28;20500;-78
2023/02/13 10:27:40;;;;;;;67.20;37.67;;;;;;;0.93;58.96;95580.84;4973942;28;20319;-78
2023/02/13 10:30:16;;;;;;;69.28;42.03;;;;;;;1.39;57.85;95591.81;4969581;28;20031;-79
2023/02/13 10:32:50;;;;;;;68.30;36.20;;;;;;;1.42;57.19;95574.88;4972355;28;20047;-79
2023/02/13 10:35:28;;;;;;;67.32;37.17;;;;;;;1.54;57.14;95579.22;4968705;28;20105;-79
2023/02/13 10:37:56;;;;;;;62.80;36.25;;;;;;;1.65;56.61;95575.91;4971828;28;20636;-79
2023/02/13 10:40:30;;;;;;;69.95;37.17;;;;;;;1.52;56.82;95569.97;4969850;28;20047;-80
2023/02/13 10:43:03;;;;;;;69.30;37.10;;;;;;;1.93;56.11;95574.66;4977582;28;20027;-79
2023/02/13 10:45:47;;;;;;;69.03;39.15;;;;;;;2.15;55.70;95575.88;4977457;28;20492;-80
2023/02/13 10:48:21;;;;;;;73.65;38.45;;;;;;;1.82;56.52;95564.84;4979359;28;20099;-77
2023/02/13 10:51:12;;;;;;;72.43;38.90;;;;;;;1.62;57.21;95568.44;4981445;28;20039;-79
2023/02/13 10:53:46;;;;;;;66.15;37.75;;;;;;;2.03;56.13;95551.34;4978238;28;20054;-79
2023/02/13 10:56:34;;;;;;;73.05;35.60;;;;;;;2.12;55.63;95563.19;4976345;28;20413;-76
2023/02/13 10:59:03;;;;;;;77.35;38.80;;;;;;;2.31;54.89;95556.91;4976954;28;20045;-79
2023/02/13 11:02:09;;;;;;;70.47;37.85;;;;;;;2.41;55.03;95554.56;4977111;28;20042;-79
2023/02/13 11:04:34;;;;;;;;;;;;;;;2.55;54.41;95543.94;4910316;28;20074;-79
2023/02/13 11:07:02;;;;;;;67.15;35.70;;;;;;;2.62;53.85;95539.38;4981191;28;20501;-78
2023/02/13 11:09:32;;;;;;;61.60;33.85;;;;;;;2.23;54.92;95546.72;4978655;28;20125;-79
2023/02/13 11:11:58;;;;;;;59.92;33.13;;;;;;;2.07;55.11;95531.53;4978321;28;20029;-79
2023/02/13 11:14:25;;;;;;;59.85;33.22;;;;;;;2.33;54.59;95538.31;4979739;28;20026;-79
2023/02/13 11:17:01;;;;;;;57.67;33.92;;;;;;;2.13;54.93;95535.09;4978704;28;20038;-75
2023/02/13 11:19:33;;;;;;;55.25;31.25;;;;;;;1.98;55.43;95528.41;4980115;28;20101;-80
2023/02/13 11:22:01;;;;;;;56.55;32.40;;;;;;;2.19;55.10;95514.03;4980642;28;20478;-80
2023/02/13 11:24:28;;;;;;;57.97;31.65;;;;;;;2.39;54.04;95496.25;4978123;28;20034;-79
2023/02/13 11:27:07;;;;;;;56.67;31.17;;;;;;;2.84;52.40;95485.34;4978611;28;20410;-80
2023/02/13 11:29:35;;;;;;;55.60;29.92;;;;;;;3.09;51.30;95491.22;4982872;28;20034;-79
2023/02/13 11:32:21;;;;;;;55.80;29.50;;;;;;;3.29;51.12;95499.59;4968016;28;20038;-79
2023/02/13 11:34:49;;;;;;;47.78;27.55;;;;;;;3.41;50.61;95491.75;4979111;28;20042;-80
2023/02/13 11:37:21;;;;;;;49.80;27.50;;;;;;;3.22;50.97;95467.38;4978120;28;20086;-79
2023/02/13 11:39:49;;;;;;;43.35;25.88;;;;;;;3.34;49.93;95476.06;4974897;28;20081;-79
2023/02/13 11:42:24;;;;;;;45.38;25.67;;;;;;;2.99;50.79;95482.31;4976071;28;20038;-80
2023/02/13 11:45:23;;;;;;;52.38;28.25;;;;;;;3.03;51.26;95479.00;4978843;28;20491;-80
2023/02/13 11:47:49;;;;;;;46.13;25.42;;;;;;;3.49;50.48;95477.44;4969652;28;20034;-79
2023/02/13 11:50:30;;;;;;;49.33;26.67;;;;;;;3.55;49.78;95458.13;4977152;28;20078;-79
2023/02/13 11:53:06;;;;;;;43.20;26.10;;;;;;;3.44;49.63;95420.25;4975640;28;20216;-79
2023/02/13 11:55:32;;;;;;;46.53;25.92;;;;;;;3.21;49.99;95451.81;4978748;28;20034;-80
2023/02/13 11:57:58;;;;;;;45.53;26.40;;;;;;;3.42;50.15;95447.84;4978860;28;20406;-80
2023/02/13 12:00:36;;;;;;;40.83;24.65;;;;;;;3.52;49.82;95440.19;4975101;28;20042;-80
2023/02/13 12:03:23;;;;;;;45.13;25.35;;;;;;;3.50;49.92;95415.91;4978168;28;20057;-80
2023/02/13 12:06:15;;;;;;;42.55;24.33;;;;;;;3.71;49.22;95417.97;4980464;28;20926;-81
2023/02/13 12:08:44;;;;;;;43.60;25.65;;;;;;;3.54;49.42;95433.63;4973907;28;20671;-80
2023/02/13 12:11:32;;;;;;;38.85;22.83;;;;;;;3.77;48.85;95432.84;4977235;28;20038;-79
2023/02/13 12:13:57;;;;;;;42.20;23.90;;;;;;;3.61;49.01;95380.91;4976531;28;20054;-80
2023/02/13 12:16:32;;;;;;;41.85;23.65;;;;;;;3.59;49.03;95409.28;4977567;28;20038;-81
2023/02/13 12:19:00;;;;;;;;;;;;;;;3.46;49.70;95427.94;4977426;28;20182;-78
2023/02/13 12:21:25;;;;;;;41.05;22.42;;;;;;;3.69;48.85;95422.66;4978945;28;20717;-79